createdAt,value
2022-12-01T00:02:09.469Z,101061.03
2022-12-01T00:05:12.248Z,101051.75
2022-12-01T00:08:15.029Z,101056.53
2022-12-01T00:11:17.888Z,101060.75
2022-12-01T00:14:20.536Z,101061.78
2022-12-01T00:17:23.304Z,101054.91
2022-12-01T00:20:25.982Z,101046.47
2022-12-01T00:23:28.772Z,101051.88
2022-12-01T00:26:31.410Z,101058.09
2022-12-01T00:29:34.189Z,101045.94
2022-12-01T00:32:36.859Z,101047.78
2022-12-01T00:35:40.004Z,101056.44
2022-12-01T00:38:42.965Z,101058.09
2022-12-01T00:41:45.799Z,101051.31
2022-12-01T00:44:48.614Z,101048.19
2022-12-01T00:47:54.513Z,101049.31
2022-12-01T00:50:57.275Z,101057.31
2022-12-01T00:54:00.021Z,101049.72
2022-12-01T00:57:02.704Z,101072.00
2022-12-01T01:00:06.170Z,101075.00
2022-12-01T01:03:09.261Z,101070.28
2022-12-01T01:06:12.693Z,101076.69
2022-12-01T01:09:16.171Z,101077.06
2022-12-01T01:12:18.903Z,101078.00
2022-12-01T01:15:22.414Z,101074.66
2022-12-01T01:18:25.227Z,101079.53
2022-12-01T01:21:28.342Z,101082.69
2022-12-01T01:24:34.126Z,101079.34
2022-12-01T01:27:36.881Z,101082.13
2022-12-01T01:30:40.378Z,101078.88
2022-12-01T01:33:45.103Z,101077.22
2022-12-01T01:36:47.850Z,101086.84
2022-12-01T01:39:51.118Z,101083.72
2022-12-01T01:42:55.208Z,101088.91
2022-12-01T01:45:57.946Z,101087.97
2022-12-01T01:49:11.987Z,101085.00
2022-12-01T01:52:15.050Z,101080.25
2022-12-01T01:55:18.392Z,101077.00
2022-12-01T01:58:21.629Z,101083.28
2022-12-01T02:01:24.445Z,101088.56
2022-12-01T02:04:28.858Z,101086.88
2022-12-01T02:07:34.515Z,101089.84
2022-12-01T02:10:55.602Z,101090.00
2022-12-01T02:14:31.658Z,101089.81
2022-12-01T02:18:04.782Z,101093.84
2022-12-01T02:21:16.587Z,101090.59
2022-12-01T02:24:37.830Z,101085.50
2022-12-01T02:28:28.611Z,101091.44
2022-12-01T02:31:40.263Z,101087.06
2022-12-01T02:34:52.133Z,101086.50
2022-12-01T02:38:17.622Z,101083.91
2022-12-01T02:41:34.188Z,101080.41
2022-12-01T02:44:42.742Z,101081.22
2022-12-01T02:47:45.775Z,101071.97
2022-12-01T02:50:48.561Z,101071.97
2022-12-01T02:53:51.989Z,101065.94
2022-12-01T02:56:54.742Z,101058.47
2022-12-01T02:59:57.640Z,101049.94
2022-12-01T03:03:16.360Z,101056.22
2022-12-01T03:07:00.005Z,101054.16
2022-12-01T03:10:19.458Z,101050.00
2022-12-01T03:13:56.410Z,101045.16
2022-12-01T03:17:08.469Z,101049.25
2022-12-01T03:20:33.300Z,101044.47
2022-12-01T03:23:41.189Z,101041.84
2022-12-01T03:26:46.982Z,101046.22
2022-12-01T03:29:52.084Z,101055.84
2022-12-01T03:33:04.964Z,101049.25
2022-12-01T03:36:15.431Z,101058.03
2022-12-01T03:39:21.978Z,101058.19
2022-12-01T03:42:27.933Z,101064.63
2022-12-01T03:45:42.138Z,101068.06
2022-12-01T03:48:44.909Z,101067.03
2022-12-01T03:52:15.025Z,101066.38
2022-12-01T03:55:20.650Z,101064.03
2022-12-01T03:58:27.800Z,101071.37
2022-12-01T04:01:32.948Z,101072.56
2022-12-01T04:04:35.926Z,101082.22
2022-12-01T04:07:39.756Z,101081.53
2022-12-01T04:10:45.506Z,101083.78
2022-12-01T04:13:48.148Z,101086.84
2022-12-01T04:16:50.925Z,101084.72
2022-12-01T04:19:53.885Z,101085.13
2022-12-01T04:22:56.664Z,101087.87
2022-12-01T04:26:00.530Z,101086.12
2022-12-01T04:29:06.938Z,101092.44
2022-12-01T04:32:09.832Z,101106.22
2022-12-01T04:35:13.122Z,101095.09
2022-12-01T04:38:15.800Z,101100.28
2022-12-01T04:41:18.830Z,101107.41
2022-12-01T04:44:25.458Z,101102.53
2022-12-01T04:47:30.529Z,101106.19
2022-12-01T04:50:33.210Z,101113.34
2022-12-01T04:53:36.853Z,101102.31
2022-12-01T04:56:39.542Z,101108.34
2022-12-01T04:59:42.266Z,101098.13
2022-12-01T05:02:45.086Z,101100.97
2022-12-01T05:05:47.967Z,101102.69
2022-12-01T05:08:51.483Z,101101.87
2022-12-01T05:11:54.511Z,101101.09
2022-12-01T05:14:57.244Z,101095.25
2022-12-01T05:18:03.090Z,101089.16
2022-12-01T05:21:10.829Z,101088.56
2022-12-01T05:24:14.685Z,101093.03
2022-12-01T05:27:17.539Z,101092.31
2022-12-01T05:30:23.151Z,101091.88
2022-12-01T05:33:30.500Z,101091.09
2022-12-01T05:36:33.430Z,101097.41
2022-12-01T05:39:36.094Z,101087.22
2022-12-01T05:42:38.822Z,101096.72
2022-12-01T05:45:41.578Z,101102.78
2022-12-01T05:48:44.440Z,101103.16
2022-12-01T05:51:47.241Z,101101.56
2022-12-01T05:54:50.015Z,101104.97
2022-12-01T05:57:52.790Z,101110.16
2022-12-01T06:00:55.566Z,101105.13
2022-12-01T06:03:58.338Z,101110.50
2022-12-01T06:07:01.243Z,101124.75
2022-12-01T06:10:04.368Z,101124.13
2022-12-01T06:13:07.180Z,101128.59
2022-12-01T06:16:13.074Z,101124.41
2022-12-01T06:19:18.860Z,101128.78
2022-12-01T06:22:21.497Z,101138.22
2022-12-01T06:25:24.226Z,101140.88
2022-12-01T06:28:26.972Z,101138.34
2022-12-01T06:31:29.828Z,101144.44
2022-12-01T06:34:32.738Z,101145.25
2022-12-01T06:37:38.413Z,101133.97
2022-12-01T06:40:41.175Z,101139.88
2022-12-01T06:43:46.953Z,101141.41
2022-12-01T06:46:53.675Z,101145.69
2022-12-01T06:49:56.489Z,101149.88
2022-12-01T06:53:00.867Z,101162.84
2022-12-01T06:56:07.092Z,101160.91
2022-12-01T06:59:10.641Z,101159.88
2022-12-01T07:02:13.886Z,101164.75
2022-12-01T07:05:17.182Z,101171.31
2022-12-01T07:08:23.129Z,101170.19
2022-12-01T07:11:25.992Z,101180.16
2022-12-01T07:14:29.042Z,101175.19
2022-12-01T07:17:31.981Z,101172.97
2022-12-01T07:20:34.819Z,101171.59
2022-12-01T07:23:40.796Z,101171.00
2022-12-01T07:26:48.275Z,101164.16
2022-12-01T07:29:51.481Z,101164.25
2022-12-01T07:32:54.392Z,101166.84
2022-12-01T07:35:57.596Z,101171.38
2022-12-01T07:39:04.627Z,101163.16
2022-12-01T07:42:07.657Z,101170.47
2022-12-01T07:45:10.637Z,101165.72
2022-12-01T07:48:14.941Z,101167.97
2022-12-01T07:51:18.060Z,101171.91
2022-12-01T07:54:21.609Z,101170.00
2022-12-01T07:57:30.686Z,101165.19
2022-12-01T08:00:43.001Z,101168.47
2022-12-01T08:03:45.873Z,101168.22
2022-12-01T08:06:48.776Z,101179.00
2022-12-01T08:09:52.819Z,101182.94
2022-12-01T08:12:55.872Z,101184.84
2022-12-01T08:15:58.910Z,101181.84
2022-12-01T08:19:02.008Z,101178.59
2022-12-01T08:22:04.863Z,101177.91
2022-12-01T08:25:08.201Z,101181.72
2022-12-01T08:28:11.104Z,101182.06
2022-12-01T08:31:20.397Z,101177.28
2022-12-01T08:34:23.316Z,101175.69
2022-12-01T08:37:26.199Z,101174.75
2022-12-01T08:40:29.216Z,101175.50
2022-12-01T08:43:56.497Z,101181.44
2022-12-01T08:46:54.921Z,101182.72
2022-12-01T08:49:57.854Z,101180.56
2022-12-01T08:53:00.721Z,101178.47
2022-12-01T08:56:37.149Z,101179.69
2022-12-01T08:59:40.066Z,101191.12
2022-12-01T09:02:43.007Z,101189.31
2022-12-01T09:05:46.786Z,101187.03
2022-12-01T09:08:49.679Z,101197.41
2022-12-01T09:11:52.751Z,101198.56
2022-12-01T09:14:55.677Z,101193.47
2022-12-01T09:17:58.514Z,101189.75
2022-12-01T09:21:02.043Z,101191.50
2022-12-01T09:24:06.556Z,101185.75
2022-12-01T09:27:09.859Z,101186.13
2022-12-01T09:30:13.288Z,101184.25
2022-12-01T09:33:16.242Z,101185.19
2022-12-01T09:36:19.116Z,101192.13
2022-12-01T09:39:22.082Z,101181.81
2022-12-01T09:42:33.785Z,101183.63
2022-12-01T09:45:41.601Z,101181.03
2022-12-01T09:48:47.438Z,101176.75
2022-12-01T09:51:54.873Z,101182.75
2022-12-01T09:54:58.867Z,101174.53
2022-12-01T09:58:03.990Z,101171.28
2022-12-01T10:01:07.173Z,101169.34
2022-12-01T10:04:39.597Z,101166.16
2022-12-01T10:07:48.840Z,101158.69
2022-12-01T10:10:53.902Z,101157.62
2022-12-01T10:13:56.827Z,101151.22
2022-12-01T10:17:12.843Z,101156.97
2022-12-01T10:20:43.664Z,101153.00
2022-12-01T10:24:04.621Z,101153.66
2022-12-01T10:27:28.800Z,101152.28
2022-12-01T10:30:32.346Z,101151.69
2022-12-01T10:33:46.910Z,101151.16
2022-12-01T10:36:50.427Z,101145.41
2022-12-01T10:39:54.880Z,101141.63
2022-12-01T10:42:57.798Z,101138.97
2022-12-01T10:46:02.080Z,101131.72
2022-12-01T10:49:10.888Z,101132.88
2022-12-01T10:52:39.759Z,101133.06
2022-12-01T10:55:47.748Z,101120.12
2022-12-01T10:58:54.396Z,101116.09
2022-12-01T11:01:58.670Z,101120.91
2022-12-01T11:05:33.257Z,101112.69
2022-12-01T11:09:05.676Z,101111.81
2022-12-01T11:12:15.645Z,101105.69
2022-12-01T11:15:30.184Z,101101.19
2022-12-01T11:18:39.166Z,101085.69
2022-12-01T11:21:51.011Z,101088.09
2022-12-01T11:24:53.729Z,101081.25
2022-12-01T11:28:02.034Z,101076.31
2022-12-01T11:31:14.071Z,101082.28
2022-12-01T11:34:29.013Z,101083.94
2022-12-01T11:37:36.564Z,101076.25
2022-12-01T11:40:52.051Z,101077.47
2022-12-01T11:44:02.087Z,101073.44
2022-12-01T11:47:25.132Z,101071.81
2022-12-01T11:50:35.517Z,101076.16
2022-12-01T11:53:41.160Z,101074.09
2022-12-01T11:56:45.657Z,101077.84
2022-12-01T11:59:48.805Z,101082.19
2022-12-01T12:03:19.353Z,101085.97
2022-12-01T12:06:43.974Z,101080.56
2022-12-01T12:10:17.361Z,101082.31
2022-12-01T12:13:41.321Z,101078.84
2022-12-01T12:16:44.140Z,101068.94
2022-12-01T12:20:08.159Z,101064.84
2022-12-01T12:23:29.861Z,101067.53
2022-12-01T12:27:00.107Z,101061.75
2022-12-01T12:30:15.350Z,101062.62
2022-12-01T12:33:30.392Z,101062.59
2022-12-01T12:36:50.837Z,101061.06
2022-12-01T12:40:08.844Z,101056.84
2022-12-01T12:43:36.779Z,101057.31
2022-12-01T12:47:15.082Z,101052.56
2022-12-01T12:50:46.310Z,101050.22
2022-12-01T12:53:54.783Z,101058.25
2022-12-01T12:57:18.743Z,101055.88
2022-12-01T13:00:25.240Z,101054.37
2022-12-01T13:03:35.964Z,101054.88
2022-12-01T13:07:01.156Z,101051.41
2022-12-01T13:10:15.186Z,101050.91
2022-12-01T13:13:29.991Z,101051.38
2022-12-01T13:16:36.235Z,101047.53
2022-12-01T13:19:40.982Z,101052.78
2022-12-01T13:22:44.110Z,101049.78
2022-12-01T13:25:50.143Z,101059.12
2022-12-01T13:28:57.149Z,101052.72
2022-12-01T13:32:00.243Z,101046.47
2022-12-01T13:35:17.869Z,101050.84
2022-12-01T13:38:26.582Z,101053.94
2022-12-01T13:41:38.964Z,101053.19
2022-12-01T13:44:44.522Z,101050.19
2022-12-01T13:47:47.256Z,101050.09
2022-12-01T13:50:56.997Z,101053.00
2022-12-01T13:54:27.652Z,101047.16
2022-12-01T13:57:33.743Z,101046.19
2022-12-01T14:00:37.535Z,101042.41
2022-12-01T14:03:41.331Z,101040.13
2022-12-01T14:06:52.790Z,101040.31
2022-12-01T14:10:08.629Z,101045.88
2022-12-01T14:13:18.820Z,101042.16
2022-12-01T14:16:22.281Z,101038.47
2022-12-01T14:19:38.387Z,101039.97
2022-12-01T14:22:45.926Z,101040.06
2022-12-01T14:26:21.596Z,101037.63
2022-12-01T14:29:43.453Z,101031.97
2022-12-01T14:32:46.256Z,101032.94
2022-12-01T14:35:49.244Z,101034.25
2022-12-01T14:39:06.279Z,101025.03
2022-12-01T14:42:12.231Z,101036.47
2022-12-01T14:45:17.733Z,101033.25
2022-12-01T14:48:26.304Z,101043.22
2022-12-01T14:51:32.684Z,101032.50
2022-12-01T14:54:44.533Z,101033.91
2022-12-01T14:57:50.686Z,101040.59
2022-12-01T15:01:01.538Z,101038.75
2022-12-01T15:04:06.362Z,101034.00
2022-12-01T15:07:10.366Z,101035.34
2022-12-01T15:10:23.050Z,101028.84
2022-12-01T15:13:40.018Z,101031.06
2022-12-01T15:16:43.736Z,101021.00
2022-12-01T15:19:46.840Z,101027.28
2022-12-01T15:22:51.410Z,101026.09
2022-12-01T15:25:55.415Z,101019.97
2022-12-01T15:29:37.742Z,101023.31
2022-12-01T15:32:43.455Z,101026.13
2022-12-01T15:35:48.238Z,101028.78
2022-12-01T15:38:52.093Z,101025.88
2022-12-01T15:41:56.020Z,101026.59
2022-12-01T15:45:18.030Z,101035.28
2022-12-01T15:48:29.093Z,101031.50
2022-12-01T15:51:32.617Z,101031.06
2022-12-01T15:54:36.470Z,101036.13
2022-12-01T15:57:46.489Z,101031.13
2022-12-01T16:00:58.094Z,101031.22
2022-12-01T16:04:05.467Z,101036.50
2022-12-01T16:07:10.184Z,101038.78
2022-12-01T16:10:33.371Z,101039.81
2022-12-01T16:13:45.653Z,101040.16
2022-12-01T16:16:50.465Z,101037.84
2022-12-01T16:20:17.371Z,101041.13
2022-12-01T16:23:24.944Z,101043.47
2022-12-01T16:26:28.366Z,101043.56
2022-12-01T16:29:41.507Z,101046.63
2022-12-01T16:32:49.573Z,101047.91
2022-12-01T16:35:52.973Z,101042.34
2022-12-01T16:38:58.784Z,101053.13
2022-12-01T16:42:05.200Z,101046.44
2022-12-01T16:45:13.987Z,101048.56
2022-12-01T16:48:20.711Z,101049.22
2022-12-01T16:51:30.046Z,101053.44
2022-12-01T16:54:49.228Z,101062.00
2022-12-01T16:57:53.858Z,101051.44
2022-12-01T17:00:56.904Z,101056.03
2022-12-01T17:04:07.721Z,101057.91
2022-12-01T17:07:11.177Z,101061.63
2022-12-01T17:10:14.705Z,101060.16
2022-12-01T17:13:19.221Z,101052.81
2022-12-01T17:16:22.293Z,101051.56
2022-12-01T17:19:25.770Z,101056.75
2022-12-01T17:22:28.937Z,101050.81
2022-12-01T17:25:32.693Z,101046.81
2022-12-01T17:28:36.287Z,101058.38
2022-12-01T17:31:39.188Z,101049.19
2022-12-01T17:34:42.882Z,101063.22
2022-12-01T17:37:45.820Z,101056.50
2022-12-01T17:41:02.852Z,101048.81
2022-12-01T17:44:06.365Z,101048.69
2022-12-01T17:47:09.091Z,101059.03
2022-12-01T17:50:12.783Z,101049.53
2022-12-01T17:53:15.734Z,101045.31
2022-12-01T17:56:18.789Z,101047.16
2022-12-01T17:59:21.776Z,101049.00
2022-12-01T18:02:29.298Z,101049.59
2022-12-01T18:05:32.561Z,101043.56
2022-12-01T18:08:36.919Z,101042.50
2022-12-01T18:11:43.650Z,101048.44
2022-12-01T18:14:46.632Z,101039.81
2022-12-01T18:17:49.798Z,101050.94
2022-12-01T18:20:53.023Z,101055.19
2022-12-01T18:24:01.204Z,101054.37
2022-12-01T18:27:04.707Z,101054.28
2022-12-01T18:30:08.707Z,101053.34
2022-12-01T18:33:22.281Z,101044.66
2022-12-01T18:36:29.999Z,101045.41
2022-12-01T18:39:33.645Z,101048.00
2022-12-01T18:42:36.579Z,101050.75
2022-12-01T18:45:40.524Z,101045.50
2022-12-01T18:48:48.530Z,101045.59
2022-12-01T18:51:52.391Z,101048.91
2022-12-01T18:54:58.781Z,101050.41
2022-12-01T18:58:02.373Z,101052.00
2022-12-01T19:01:22.202Z,101048.97
2022-12-01T19:04:26.221Z,101050.31
2022-12-01T19:07:30.305Z,101053.94
2022-12-01T19:10:33.810Z,101058.72
2022-12-01T19:13:37.236Z,101056.34
2022-12-01T19:16:42.051Z,101054.72
2022-12-01T19:19:46.765Z,101053.56
2022-12-01T19:22:52.975Z,101059.94
2022-12-01T19:26:06.336Z,101056.72
2022-12-01T19:29:09.680Z,101062.91
2022-12-01T19:32:12.805Z,101058.94
2022-12-01T19:35:16.077Z,101067.37
2022-12-01T19:38:19.748Z,101061.19
2022-12-01T19:41:25.539Z,101059.59
2022-12-01T19:44:31.355Z,101062.41
2022-12-01T19:47:35.815Z,101059.91
2022-12-01T19:50:38.640Z,101054.59
2022-12-01T19:53:41.896Z,101056.50
2022-12-01T19:56:45.416Z,101055.00
2022-12-01T19:59:48.627Z,101062.31
2022-12-01T20:02:51.860Z,101051.47
2022-12-01T20:06:01.498Z,101056.56
2022-12-01T20:09:06.238Z,101054.22
2022-12-01T20:12:09.342Z,101055.25
2022-12-01T20:15:12.492Z,101060.00
2022-12-01T20:18:16.819Z,101052.66
2022-12-01T20:21:28.695Z,101054.69
2022-12-01T20:24:31.815Z,101054.84
2022-12-01T20:27:36.562Z,101063.75
2022-12-01T20:30:40.985Z,101061.50
2022-12-01T20:33:46.069Z,101062.16
2022-12-01T20:36:54.713Z,101060.97
2022-12-01T20:39:58.147Z,101059.75
2022-12-01T20:43:01.391Z,101062.56
2022-12-01T20:46:05.151Z,101064.22
2022-12-01T20:49:09.979Z,101058.47
2022-12-01T20:52:13.180Z,101059.09
2022-12-01T20:55:17.684Z,101065.53
2022-12-01T20:58:20.836Z,101066.12
2022-12-01T21:01:24.403Z,101062.88
2022-12-01T21:04:27.689Z,101061.63
2022-12-01T21:07:31.195Z,101066.38
2022-12-01T21:10:45.501Z,101076.75
2022-12-01T21:13:48.350Z,101073.72
2022-12-01T21:16:52.677Z,101076.50
2022-12-01T21:20:01.790Z,101074.97
2022-12-01T21:23:15.454Z,101079.41
2022-12-01T21:26:19.328Z,101076.00
2022-12-01T21:29:39.777Z,101078.75
2022-12-01T21:32:44.206Z,101075.22
2022-12-01T21:35:50.860Z,101073.87
2022-12-01T21:38:57.417Z,101071.56
2022-12-01T21:42:13.060Z,101081.41
2022-12-01T21:45:35.185Z,101091.97
2022-12-01T21:48:38.179Z,101093.72
2022-12-01T21:51:41.038Z,101086.94
2022-12-01T21:54:43.990Z,101077.50
2022-12-01T21:57:49.275Z,101089.03
2022-12-01T22:00:53.186Z,101091.84
2022-12-01T22:04:01.817Z,101089.44
2022-12-01T22:07:05.740Z,101091.56
2022-12-01T22:10:46.050Z,101089.31
2022-12-01T22:14:13.617Z,101087.78
2022-12-01T22:17:20.279Z,101085.38
2022-12-01T22:20:23.307Z,101080.41
2022-12-01T22:23:34.116Z,101088.53
2022-12-01T22:27:09.599Z,101083.53
2022-12-01T22:30:20.542Z,101080.41
2022-12-01T22:33:25.077Z,101083.16
2022-12-01T22:36:32.254Z,101083.53
2022-12-01T22:39:35.147Z,101087.19
2022-12-01T22:42:38.093Z,101083.84
2022-12-01T22:45:40.929Z,101088.25
2022-12-01T22:48:50.047Z,101090.00
2022-12-01T22:52:03.119Z,101088.25
2022-12-01T22:55:15.481Z,101083.16
2022-12-01T22:58:31.077Z,101090.22
2022-12-01T23:01:35.744Z,101089.31
2022-12-01T23:04:41.111Z,101083.25
2022-12-01T23:07:44.078Z,101085.66
2022-12-01T23:10:46.963Z,101083.78
2022-12-01T23:13:49.672Z,101075.03
2022-12-01T23:17:07.973Z,101067.19
2022-12-01T23:20:21.841Z,101068.03
2022-12-01T23:23:30.295Z,101062.94
2022-12-01T23:26:33.659Z,101070.53
2022-12-01T23:29:37.005Z,101067.28
2022-12-01T23:32:40.017Z,101060.34
2022-12-01T23:35:53.757Z,101060.28
2022-12-01T23:38:58.911Z,101065.44
2022-12-01T23:42:03.089Z,101068.03
2022-12-01T23:45:11.736Z,101070.59
2022-12-01T23:48:35.423Z,101071.53
2022-12-01T23:51:40.538Z,101053.59
2022-12-01T23:54:43.310Z,101054.50
2022-12-01T23:57:46.138Z,101053.59
